Time;durP1;ratioP1;P1;durP2;ratioP2;P2;SDS_P1;SDS_P2;PMS_P1;PMS_P2;Temp;Humidity;BMP_temperature;BMP_pressure;BME280_temperature;BME280_humidity;BME280_pressure;Samples;Min_cycle;Max_cycle;Signal;HPM_P1;HPM_P2
2023/10/05 00:02:21;;;;;;;2.03;1.13;;;;;;;12.40;97.39;101566.41;6137925;23;20381;-69
2023/10/05 00:04:51;;;;;;;0.80;0.50;;;;;;;12.35;97.66;101566.19;6139503;23;20771;-69
2023/10/05 00:07:23;;;;;;;0.80;0.50;;;;;;;12.33;97.63;101565.56;6137113;23;20379;-69
2023/10/05 00:09:56;;;;;;;0.80;0.50;;;;;;;12.38;97.58;101563.09;6147414;23;20418;-68
2023/10/05 00:12:25;;;;;;;0.80;0.50;;;;;;;12.43;97.47;101563.34;6137634;23;20470;-70
2023/10/05 00:15:11;;;;;;;0.80;0.50;;;;;;;12.39;97.47;101561.22;6136511;23;20353;-68
2023/10/05 00:17:40;;;;;;;0.80;0.40;;;;;;;12.30;98.17;101557.78;6136425;23;20374;-70
2023/10/05 00:20:14;;;;;;;0.80;0.50;;;;;;;12.38;97.69;101564.97;6135926;23;20387;-70
2023/10/05 00:22:43;;;;;;;0.80;0.50;;;;;;;12.19;98.88;101561.06;6134357;23;20426;-69
2023/10/05 00:25:17;;;;;;;0.93;0.83;;;;;;;12.18;98.71;101562.94;6132972;23;20454;-70
2023/10/05 00:27:50;;;;;;;1.20;0.97;;;;;;;12.25;98.93;101565.69;6133781;23;20399;-70
2023/10/05 00:30:18;;;;;;;0.80;0.50;;;;;;;12.16;98.96;101561.44;6107540;23;20820;-69
2023/10/05 00:32:48;;;;;;;1.87;1.77;;;;;;;12.25;99.01;101557.53;6135893;23;20429;-70
2023/10/05 00:35:20;;;;;;;0.80;0.50;;;;;;;12.32;98.20;101558.44;6138717;23;20399;-69
2023/10/05 00:37:50;;;;;;;0.80;0.50;;;;;;;12.37;97.58;101553.25;6110755;23;20436;-69
2023/10/05 00:40:33;;;;;;;1.63;1.53;;;;;;;12.37;98.04;101547.84;6132647;23;20382;-69
2023/10/05 00:43:07;;;;;;;0.90;0.60;;;;;;;12.32;98.08;101555.72;6132859;23;20373;-69
2023/10/05 00:45:38;;;;;;;0.80;0.50;;;;;;;12.45;97.42;101554.97;6104226;23;20765;-69
2023/10/05 00:48:13;;;;;;;0.80;0.50;;;;;;;12.49;96.42;101551.66;6104748;23;20403;-66
2023/10/05 00:50:46;;;;;;;0.80;0.43;;;;;;;12.62;95.60;101540.06;6129755;23;20686;-69
2023/10/05 00:53:16;;;;;;;0.80;0.40;;;;;;;12.64;94.45;101548.81;6102303;23;20432;-69
2023/10/05 00:55:52;;;;;;;0.80;0.40;;;;;;;12.69;93.92;101545.50;6128589;23;20756;-69
2023/10/05 00:58:22;;;;;;;0.90;0.60;;;;;;;12.70;93.71;101549.91;6102111;23;20420;-69
2023/10/05 01:00:51;;;;;;;0.80;0.50;;;;;;;12.74;93.30;101537.59;6128374;23;20485;-69
2023/10/05 01:03:33;;;;;;;0.80;0.50;;;;;;;12.83;92.24;101537.22;6102120;23;20377;-67
2023/10/05 01:06:19;;;;;;;1.20;1.10;;;;;;;12.86;92.38;101539.56;6128442;23;20429;-70
2023/10/05 01:08:54;;;;;;;1.23;1.13;;;;;;;12.95;92.09;101535.63;6128400;23;20410;-69
2023/10/05 01:11:33;;;;;;;1.03;0.93;;;;;;;13.11;90.45;101533.63;6128755;23;20421;-69
2023/10/05 01:14:04;;;;;;;0.90;0.80;;;;;;;13.10;90.00;101516.47;6127328;23;20375;-70
2023/10/05 01:16:33;;;;;;;0.80;0.50;;;;;;;12.99;90.18;101519.75;6101047;23;20391;-69
2023/10/05 01:19:07;;;;;;;0.80;0.60;;;;;;;13.06;90.18;101517.91;6128201;23;20393;-70
2023/10/05 01:21:37;;;;;;;0.90;0.80;;;;;;;13.09;89.99;101509.34;6128565;23;20453;-70
2023/10/05 01:24:09;;;;;;;0.80;0.50;;;;;;;13.05;89.83;101491.78;6127703;23;20461;-66
2023/10/05 01:26:38;;;;;;;2.00;0.73;;;;;;;13.04;89.94;101490.94;6126750;23;20465;-69
2023/10/05 01:29:07;;;;;;;0.80;0.50;;;;;;;12.96;90.99;101488.41;6101134;23;20410;-68
2023/10/05 01:31:36;;;;;;;1.07;0.63;;;;;;;12.96;90.96;101491.13;6101575;23;20427;-69
2023/10/05 01:34:05;;;;;;;0.80;0.50;;;;;;;12.91;91.09;101481.91;6127577;23;20406;-69
2023/10/05 01:36:34;;;;;;;0.80;0.40;;;;;;;12.88;91.60;101479.59;6101121;23;20912;-70
2023/10/05 01:39:08;;;;;;;1.20;1.10;;;;;;;12.79;92.58;101475.38;6127126;23;20843;-68
2023/10/05 01:41:38;;;;;;;1.00;0.70;;;;;;;12.82;92.57;101470.41;6102706;23;20747;-70
2023/10/05 01:44:08;;;;;;;0.80;0.50;;;;;;;12.81;92.63;101478.75;6102572;23;20377;-70
2023/10/05 01:46:38;;;;;;;1.20;0.80;;;;;;;12.80;93.30;101474.34;6126244;23;20390;-70
2023/10/05 01:49:08;;;;;;;0.80;0.40;;;;;;;12.76;93.74;101475.78;6100367;23;20395;-69
2023/10/05 01:51:37;;;;;;;1.37;1.00;;;;;;;12.67;94.37;101480.56;6126651;23;20938;-70
2023/10/05 01:54:11;;;;;;;1.97;0.70;;;;;;;12.65;94.57;101474.47;6126618;23;20386;-70
2023/10/05 01:56:47;;;;;;;1.00;0.70;;;;;;;12.67;94.13;101477.00;6128705;23;20457;-69
2023/10/05 01:59:21;;;;;;;0.80;0.50;;;;;;;12.68;94.73;101481.41;6101101;23;20809;-69
2023/10/05 02:01:53;;;;;;;0.80;0.50;;;;;;;12.71;94.17;101479.13;6126348;23;20394;-68
2023/10/05 02:04:23;;;;;;;0.80;0.50;;;;;;;12.73;93.76;101466.16;6126669;23;20425;-69
2023/10/05 02:06:53;;;;;;;0.80;0.50;;;;;;;12.74;93.47;101467.00;6125821;23;20946;-69
2023/10/05 02:09:22;;;;;;;0.80;0.40;;;;;;;12.73;93.41;101470.78;6100306;23;20458;-69
2023/10/05 02:11:52;;;;;;;0.80;0.50;;;;;;;12.79;93.23;101464.50;6126003;23;20411;-70
2023/10/05 02:14:22;;;;;;;0.90;0.50;;;;;;;12.85;92.24;101460.97;6099472;23;20418;-68
2023/10/05 02:16:51;;;;;;;0.80;0.50;;;;;;;12.83;92.03;101454.94;6125875;23;20381;-68
2023/10/05 02:19:21;;;;;;;0.80;0.50;;;;;;;12.90;91.52;101461.22;6126217;23;20485;-67
2023/10/05 02:21:55;;;;;;;0.97;0.87;;;;;;;12.88;91.23;101452.41;6125955;23;20763;-69
2023/10/05 02:24:25;;;;;;;0.80;0.40;;;;;;;12.84;90.94;101446.56;6126091;23;20473;-69
2023/10/05 02:27:09;;;;;;;0.80;0.50;;;;;;;12.92;90.55;101454.56;6099431;23;20434;-69
2023/10/05 02:29:42;;;;;;;1.03;0.93;;;;;;;12.89;90.97;101448.66;6126011;23;20699;-69
2023/10/05 02:32:14;;;;;;;0.80;0.50;;;;;;;12.94;90.30;101440.75;6125424;23;20889;-68
2023/10/05 02:34:59;;;;;;;0.80;0.40;;;;;;;12.89;90.58;101440.53;6125801;23;20350;-69
2023/10/05 02:37:31;;;;;;;3.53;1.80;;;;;;;12.88;90.70;101434.25;6125691;23;20371;-68
2023/10/05 02:40:07;;;;;;;0.80;0.47;;;;;;;12.84;91.03;101435.69;6125587;23;20371;-69
2023/10/05 02:42:39;;;;;;;0.80;0.50;;;;;;;12.84;91.08;101429.44;6099723;23;20457;-69
2023/10/05 02:45:11;;;;;;;0.80;0.40;;;;;;;12.76;91.39;101438.59;6099195;23;20917;-69
2023/10/05 02:47:43;;;;;;;0.80;0.50;;;;;;;12.81;91.28;101427.13;6125630;23;20418;-70
2023/10/05 02:50:11;;;;;;;0.80;0.50;;;;;;;12.77;91.49;101434.00;6125655;23;20462;-68
2023/10/05 02:52:40;;;;;;;1.07;0.63;;;;;;;12.72;92.10;101426.47;6125323;23;20389;-70
2023/10/05 02:55:10;;;;;;;0.80;0.50;;;;;;;12.77;91.82;101424.00;6125324;23;20370;-68
2023/10/05 02:57:40;;;;;;;0.87;0.47;;;;;;;12.77;91.74;101424.00;6099680;23;20874;-69
2023/10/05 03:00:12;;;;;;;0.80;0.40;;;;;;;12.78;92.14;101431.06;6125411;23;20407;-69
2023/10/05 03:02:47;;;;;;;0.80;0.40;;;;;;;12.76;92.05;101416.03;6099238;23;20939;-70
2023/10/05 03:05:16;;;;;;;0.80;0.40;;;;;;;12.78;92.39;101419.41;6099382;23;20416;-70
2023/10/05 03:07:47;;;;;;;1.43;1.33;;;;;;;12.80;92.03;101428.16;6125765;23;20968;-68
2023/10/05 03:10:17;;;;;;;0.80;0.50;;;;;;;12.84;91.41;101421.28;6099343;23;20959;-69
2023/10/05 03:12:47;;;;;;;0.80;0.50;;;;;;;12.83;92.00;101422.34;6125241;23;20445;-70
2023/10/05 03:15:27;;;;;;;0.80;0.40;;;;;;;12.86;91.71;101416.50;6099486;23;20398;-69
2023/10/05 03:17:57;;;;;;;0.80;0.50;;;;;;;12.89;91.14;101416.91;6099387;23;20410;-69
2023/10/05 03:20:30;;;;;;;0.80;0.50;;;;;;;12.83;91.54;101412.28;6099443;23;20454;-70
2023/10/05 03:22:59;;;;;;;0.80;0.50;;;;;;;12.92;91.37;101411.09;6108337;23;20450;-70
2023/10/05 03:25:28;;;;;;;0.97;0.87;;;;;;;12.99;90.67;101406.50;6108292;23;20502;-69
2023/10/05 03:28:01;;;;;;;0.80;0.40;;;;;;;13.02;90.27;101405.25;6134835;23;20469;-69
2023/10/05 03:30:31;;;;;;;0.80;0.40;;;;;;;13.02;89.71;101405.25;6106783;23;20889;-71
2023/10/05 03:33:01;;;;;;;0.80;0.50;;;;;;;13.05;89.71;101402.13;6106737;23;20486;-69
2023/10/05 03:35:32;;;;;;;0.80;0.50;;;;;;;13.10;88.99;101402.34;6131250;23;20353;-70
2023/10/05 03:38:04;;;;;;;0.97;0.87;;;;;;;13.05;88.66;101408.41;6128679;23;20391;-70
2023/10/05 03:40:36;;;;;;;2.50;0.80;;;;;;;13.12;88.46;101403.00;6103667;23;20406;-70
2023/10/05 03:43:06;;;;;;;0.80;0.50;;;;;;;13.12;88.56;101408.41;6103328;23;20472;-70
2023/10/05 03:45:38;;;;;;;1.13;1.03;;;;;;;13.06;88.97;101399.22;6128699;23;20446;-70
2023/10/05 03:48:10;;;;;;;0.80;0.40;;;;;;;13.15;88.38;101397.16;6102543;23;20434;-70
2023/10/05 03:50:39;;;;;;;0.80;0.50;;;;;;;13.15;87.66;101408.03;6101434;23;20429;-69
2023/10/05 03:53:15;;;;;;;0.80;0.40;;;;;;;13.17;88.26;101396.97;6101577;23;20406;-69
2023/10/05 03:55:47;;;;;;;0.80;0.40;;;;;;;13.11;88.56;101398.63;6102143;23;20384;-70
2023/10/05 03:58:17;;;;;;;1.20;1.10;;;;;;;13.13;88.38;101391.06;6099861;23;20394;-68
2023/10/05 04:00:49;;;;;;;0.80;0.40;;;;;;;13.16;87.84;101385.25;6100039;23;20410;-70
2023/10/05 04:03:21;;;;;;;0.80;0.50;;;;;;;13.21;87.92;101380.03;6100686;23;20438;-70
2023/10/05 04:05:51;;;;;;;0.80;0.50;;;;;;;13.36;86.83;101382.56;6102610;23;20422;-69
2023/10/05 04:08:20;;;;;;;0.80;0.50;;;;;;;13.35;86.80;101373.56;6102463;23;20468;-69
2023/10/05 04:10:50;;;;;;;0.90;0.50;;;;;;;13.35;87.09;101384.44;6127949;23;20682;-69
2023/10/05 04:13:22;;;;;;;0.97;0.77;;;;;;;13.41;86.73;101380.84;6128035;23;20716;-69
2023/10/05 04:15:51;;;;;;;0.80;0.50;;;;;;;13.38;86.71;101375.00;6128100;23;20371;-68
2023/10/05 04:18:21;;;;;;;0.80;0.50;;;;;;;13.42;86.79;101379.81;6101482;23;20413;-68
2023/10/05 04:20:51;;;;;;;0.80;0.50;;;;;;;13.45;86.38;101368.53;6127895;23;20679;-69
2023/10/05 04:23:27;;;;;;;0.80;0.43;;;;;;;13.44;86.60;101366.84;6127760;23;20406;-68
2023/10/05 04:25:56;;;;;;;0.80;0.50;;;;;;;13.46;86.79;101370.19;6126760;23;20371;-70
2023/10/05 04:28:32;;;;;;;0.80;0.50;;;;;;;13.34;87.16;101366.44;6127238;23;20424;-68
2023/10/05 04:31:02;;;;;;;4.30;0.70;;;;;;;13.30;87.30;101359.75;6126940;23;20776;-68
2023/10/05 04:33:32;;;;;;;0.80;0.50;;;;;;;13.22;87.53;101362.66;6127307;23;20815;-69
2023/10/05 04:36:03;;;;;;;0.80;0.40;;;;;;;13.32;86.78;101349.50;6127506;23;20799;-70
2023/10/05 04:38:32;;;;;;;1.50;0.77;;;;;;;13.22;87.46;101359.94;6127439;23;20656;-71
2023/10/05 04:41:01;;;;;;;1.90;0.90;;;;;;;13.20;88.17;101348.47;6127180;23;20509;-69
2023/10/05 04:43:31;;;;;;;0.80;0.50;;;;;;;13.16;88.14;101352.63;6127054;23;20430;-68
2023/10/05 04:46:05;;;;;;;0.80;0.50;;;;;;;13.25;87.48;101359.53;6127058;23;20381;-69
2023/10/05 04:48:34;;;;;;;0.80;0.50;;;;;;;13.26;87.28;101353.06;6127046;23;20952;-68
2023/10/05 04:51:05;;;;;;;0.80;0.50;;;;;;;13.29;86.97;101349.91;6127295;23;20394;-70
2023/10/05 04:53:38;;;;;;;0.80;0.50;;;;;;;13.27;86.96;101337.56;6128238;23;20374;-68
2023/10/05 04:56:22;;;;;;;0.80;0.50;;;;;;;13.28;87.34;101348.25;6127399;23;20383;-70
2023/10/05 04:59:18;;;;;;;0.80;0.50;;;;;;;13.31;87.11;101336.94;6129809;23;20837;-69
2023/10/05 05:01:59;;;;;;;0.80;0.50;;;;;;;13.24;87.13;101338.00;6134312;23;20385;-70
2023/10/05 05:04:41;;;;;;;0.80;0.40;;;;;;;13.24;88.02;101324.41;6131178;23;20379;-71
2023/10/05 05:07:11;;;;;;;0.80;0.50;;;;;;;13.22;88.29;101326.47;6128613;23;20806;-69
2023/10/05 05:09:42;;;;;;;0.80;0.50;;;;;;;13.24;88.28;101330.69;6128838;23;20460;-70
2023/10/05 05:12:16;;;;;;;1.13;1.03;;;;;;;13.25;88.00;101332.34;6129670;23;20414;-68
2023/10/05 05:14:49;;;;;;;0.80;0.50;;;;;;;13.20;88.37;101332.16;6133578;23;20715;-68
2023/10/05 05:17:21;;;;;;;0.80;0.50;;;;;;;13.14;88.91;101324.81;6133692;23;20363;-71
2023/10/05 05:19:52;;;;;;;0.80;0.40;;;;;;;13.25;88.44;101335.09;6104410;23;20380;-69
2023/10/05 05:22:21;;;;;;;0.80;0.50;;;;;;;13.18;89.18;101328.78;6128097;23;20411;-68
2023/10/05 05:24:51;;;;;;;1.93;1.83;;;;;;;13.18;88.98;101326.06;6127051;23;20836;-69
2023/10/05 05:27:23;;;;;;;0.80;0.40;;;;;;;13.19;89.43;101325.03;6126314;23;20484;-70
2023/10/05 05:29:53;;;;;;;2.13;1.93;;;;;;;13.22;88.78;101321.88;6127071;23;20375;-67
2023/10/05 05:32:22;;;;;;;0.80;0.40;;;;;;;13.24;89.05;101325.25;6127226;23;20470;-68
2023/10/05 05:34:52;;;;;;;0.80;0.40;;;;;;;13.21;89.67;101328.41;6126375;23;20402;-68
2023/10/05 05:37:28;;;;;;;0.80;0.50;;;;;;;13.27;89.13;101335.69;6126835;23;20365;-68
2023/10/05 05:40:02;;;;;;;0.80;0.50;;;;;;;13.29;88.79;101330.91;6126506;23;20375;-70
2023/10/05 05:42:32;;;;;;;0.80;0.50;;;;;;;13.27;88.87;101318.53;6126303;23;20406;-68
2023/10/05 05:45:08;;;;;;;0.80;0.40;;;;;;;13.25;89.46;101323.38;6126439;23;20379;-68
2023/10/05 05:47:37;;;;;;;0.80;0.60;;;;;;;13.34;88.91;101333.81;6126149;23;20418;-70
2023/10/05 05:50:15;;;;;;;0.80;0.47;;;;;;;13.26;89.25;101323.16;6126444;23;20461;-68
2023/10/05 05:52:46;;;;;;;0.80;0.50;;;;;;;13.35;89.18;101330.06;6126721;23;20406;-68
2023/10/05 05:55:20;;;;;;;0.80;0.50;;;;;;;13.42;88.46;101324.59;6126060;23;20350;-68
2023/10/05 05:57:50;;;;;;;0.80;0.50;;;;;;;13.48;88.25;101330.03;6127279;23;20397;-68
2023/10/05 06:00:21;;;;;;;0.80;0.40;;;;;;;13.45;88.15;101326.91;6127467;23;20470;-68
2023/10/05 06:02:50;;;;;;;0.80;0.60;;;;;;;13.51;88.18;101325.25;6126923;23;20472;-69
2023/10/05 06:05:22;;;;;;;1.83;1.37;;;;;;;13.55;88.08;101323.78;6126480;23;20384;-67
2023/10/05 06:07:51;;;;;;;0.80;0.43;;;;;;;13.60;87.36;101326.69;6126415;23;20444;-69
2023/10/05 06:10:28;;;;;;;0.80;0.40;;;;;;;13.61;87.71;101334.63;6126451;23;20386;-69
2023/10/05 06:12:58;;;;;;;0.80;0.50;;;;;;;13.63;87.27;101337.13;6126285;23;20430;-68
2023/10/05 06:15:30;;;;;;;3.37;3.07;;;;;;;13.70;87.05;101327.91;6127286;23;20910;-69
2023/10/05 06:18:00;;;;;;;0.80;0.50;;;;;;;13.76;86.47;101337.09;6126818;23;20358;-70
2023/10/05 06:20:29;;;;;;;0.90;0.60;;;;;;;13.83;86.43;101332.50;6127002;23;20382;-68
2023/10/05 06:22:58;;;;;;;0.80;0.40;;;;;;;13.76;86.79;101337.09;6126879;23;20462;-69
2023/10/05 06:25:26;;;;;;;0.80;0.50;;;;;;;13.83;86.64;101338.78;6125824;23;20350;-69
2023/10/05 06:27:56;;;;;;;0.90;0.60;;;;;;;13.91;86.34;101329.53;6125473;23;20414;-68
2023/10/05 06:30:25;;;;;;;0.80;0.50;;;;;;;13.92;85.95;101326.63;6126284;23;20754;-69
2023/10/05 06:32:55;;;;;;;3.17;1.43;;;;;;;13.88;86.88;101330.81;6126201;23;20400;-68
2023/10/05 06:35:23;;;;;;;0.80;0.57;;;;;;;13.90;86.24;101334.13;6126187;23;20375;-69
2023/10/05 06:37:52;;;;;;;0.80;0.50;;;;;;;14.02;86.71;101333.50;6125745;23;20375;-69
2023/10/05 06:40:25;;;;;;;0.80;0.50;;;;;;;14.08;85.80;101329.91;6126023;23;20350;-67
2023/10/05 06:42:53;;;;;;;0.80;0.50;;;;;;;14.12;85.69;101333.88;6125696;23;20388;-70
2023/10/05 06:45:23;;;;;;;1.17;1.07;;;;;;;14.18;85.37;101325.69;6125960;23;20726;-67
2023/10/05 06:47:53;;;;;;;0.80;0.40;;;;;;;14.31;84.55;101325.63;6125978;23;20816;-70
2023/10/05 06:50:22;;;;;;;0.80;0.40;;;;;;;14.27;84.70;101324.41;6125461;23;20745;-69
2023/10/05 06:52:52;;;;;;;0.80;0.50;;;;;;;14.31;85.09;101325.63;6125471;23;20693;-70
2023/10/05 06:55:23;;;;;;;0.90;0.70;;;;;;;14.28;85.21;101320.59;6125570;23;20394;-68
2023/10/05 06:57:53;;;;;;;0.80;0.40;;;;;;;14.46;84.58;101332.72;6125557;23;20437;-69
2023/10/05 07:00:22;;;;;;;0.90;0.50;;;;;;;14.45;84.46;101328.31;6126372;23;20358;-68
2023/10/05 07:02:53;;;;;;;0.80;0.40;;;;;;;14.49;84.00;101327.66;6125846;23;20393;-71
2023/10/05 07:05:24;;;;;;;0.80;0.40;;;;;;;14.62;83.71;101332.22;6125767;23;20752;-68
2023/10/05 07:07:53;;;;;;;0.80;0.50;;;;;;;14.58;83.93;101325.53;6125067;23;20365;-68
2023/10/05 07:10:23;;;;;;;0.80;0.50;;;;;;;14.71;83.14;101328.19;6125413;23;20418;-68
2023/10/05 07:12:52;;;;;;;0.80;0.43;;;;;;;14.76;83.23;101331.09;6125124;23;20415;-70
2023/10/05 07:15:21;;;;;;;1.13;1.03;;;;;;;14.95;82.57;101343.75;6125065;23;20350;-68
2023/10/05 07:17:50;;;;;;;0.80;0.60;;;;;;;14.95;82.48;101343.75;6125176;23;20498;-69
2023/10/05 07:20:20;;;;;;;0.83;0.63;;;;;;;15.06;82.18;101351.19;6125326;23;20748;-68
2023/10/05 07:22:50;;;;;;;6.60;1.60;;;;;;;14.99;82.48;101344.97;6124855;23;20755;-68
2023/10/05 07:25:19;;;;;;;1.20;1.10;;;;;;;15.05;81.88;101349.56;6125222;23;20430;-69
2023/10/05 07:27:48;;;;;;;0.80;0.40;;;;;;;15.00;82.29;101351.28;6099174;23;20905;-69
2023/10/05 07:30:17;;;;;;;0.80;0.50;;;;;;;14.85;82.81;101354.31;6125286;23;20437;-69
2023/10/05 07:32:46;;;;;;;1.77;1.43;;;;;;;14.85;83.11;101359.75;6124824;23;20385;-68
2023/10/05 07:35:36;;;;;;;0.80;0.50;;;;;;;14.71;83.61;101363.59;6125085;23;20376;-69
2023/10/05 07:38:07;;;;;;;0.80;0.50;;;;;;;14.85;83.71;101367.09;6125672;23;20709;-68
2023/10/05 07:40:37;;;;;;;0.80;0.40;;;;;;;14.93;82.95;101372.25;6125241;23;20462;-68
2023/10/05 07:43:06;;;;;;;0.80;0.40;;;;;;;15.06;82.06;101373.00;6125592;23;20409;-69
2023/10/05 07:45:37;;;;;;;0.90;0.60;;;;;;;15.16;81.87;101380.69;6125288;23;20862;-69
2023/10/05 07:48:07;;;;;;;1.10;0.70;;;;;;;15.27;81.80;101387.34;6125127;23;20375;-68
2023/10/05 07:50:37;;;;;;;0.80;0.40;;;;;;;15.35;81.06;101382.44;6125491;23;20382;-68
2023/10/05 07:53:07;;;;;;;0.80;0.50;;;;;;;15.66;80.49;101389.78;6124836;23;20375;-69
2023/10/05 07:55:36;;;;;;;0.80;0.50;;;;;;;15.69;79.59;101383.03;6099313;23;20812;-69
2023/10/05 07:58:06;;;;;;;0.80;0.50;;;;;;;15.72;79.66;101398.97;6125238;23;20833;-70
2023/10/05 08:00:35;;;;;;;0.80;0.50;;;;;;;15.82;79.23;101394.69;6125163;23;20371;-66
2023/10/05 08:03:05;;;;;;;1.93;1.57;;;;;;;15.81;78.72;101386.72;6124959;23;20382;-71
2023/10/05 08:05:34;;;;;;;0.90;0.70;;;;;;;15.78;78.73;101398.88;6125034;23;20515;-68
2023/10/05 08:08:06;;;;;;;5.90;1.13;;;;;;;15.75;79.37;101396.63;6124566;23;20446;-70
2023/10/05 08:10:35;;;;;;;0.90;0.53;;;;;;;15.47;79.52;101386.13;6125195;23;20385;-70
2023/10/05 08:13:05;;;;;;;0.90;0.63;;;;;;;15.50;79.85;101398.47;6124933;23;20474;-69
2023/10/05 08:15:35;;;;;;;0.80;0.50;;;;;;;15.54;79.76;101399.75;6100516;23;20401;-71
2023/10/05 08:18:05;;;;;;;0.80;0.50;;;;;;;15.59;80.24;101402.63;6129736;23;20394;-69
2023/10/05 08:20:34;;;;;;;0.80;0.50;;;;;;;15.83;78.70;101406.44;6127780;23;20663;-70
2023/10/05 08:23:03;;;;;;;0.80;0.43;;;;;;;16.00;77.99;101397.44;6125342;23;20398;-69
2023/10/05 08:25:34;;;;;;;0.80;0.40;;;;;;;16.20;77.27;101405.41;6125143;23;20382;-68
2023/10/05 08:28:03;;;;;;;0.80;0.50;;;;;;;15.91;77.36;101401.50;6125581;23;20382;-69
2023/10/05 08:30:45;;;;;;;0.90;0.70;;;;;;;15.96;77.88;101396.22;6099051;23;20430;-69
2023/10/05 08:33:19;;;;;;;0.80;0.40;;;;;;;15.82;78.05;101397.41;6126267;23;20342;-68
2023/10/05 08:35:49;;;;;;;0.80;0.50;;;;;;;16.05;77.72;101397.59;6127241;23;20368;-70
2023/10/05 08:38:17;;;;;;;0.80;0.50;;;;;;;16.46;75.20;101401.53;6125181;23;20371;-68
2023/10/05 08:40:52;;;;;;;1.10;0.80;;;;;;;16.92;73.43;101407.28;6124893;23;20398;-71
2023/10/05 08:43:21;;;;;;;0.97;0.77;;;;;;;17.25;71.83;101412.25;6125021;23;20917;-68
2023/10/05 08:45:51;;;;;;;0.90;0.67;;;;;;;17.39;71.34;101407.41;6124999;23;20816;-68
2023/10/05 08:48:28;;;;;;;0.80;0.40;;;;;;;17.57;69.88;101407.31;6125257;23;20341;-69
2023/10/05 08:51:09;;;;;;;0.80;0.50;;;;;;;17.45;69.28;101398.25;6125642;23;20448;-67
2023/10/05 08:53:41;;;;;;;0.80;0.50;;;;;;;17.33;69.54;101403.69;6132869;23;20450;-69
2023/10/05 08:56:15;;;;;;;1.10;0.70;;;;;;;17.44;68.95;101398.50;6130766;23;20561;-69
2023/10/05 08:58:46;;;;;;;0.90;0.40;;;;;;;17.27;69.57;101403.81;6129339;23;20371;-68
2023/10/05 09:01:34;;;;;;;0.87;0.40;;;;;;;17.39;69.25;101407.41;6102493;23;20464;-68
2023/10/05 09:04:23;;;;;;;0.90;0.50;;;;;;;17.62;69.62;101407.47;6126472;23;20371;-69
2023/10/05 09:06:55;;;;;;;0.90;0.40;;;;;;;17.81;68.72;101411.78;6126421;23;20394;-70
2023/10/05 09:09:38;;;;;;;0.90;0.50;;;;;;;17.48;69.33;101396.94;6126438;23;20453;-68
2023/10/05 09:12:33;;;;;;;0.93;0.50;;;;;;;17.16;70.33;101407.34;6126235;23;20477;-70
2023/10/05 09:15:08;;;;;;;0.90;0.50;;;;;;;17.03;71.23;101394.72;6126038;23;20761;-68
2023/10/05 09:17:37;;;;;;;0.83;0.50;;;;;;;17.05;70.87;101405.41;6126537;23;20375;-69
2023/10/05 09:20:23;;;;;;;0.80;0.50;;;;;;;17.23;71.68;101408.91;6126339;23;20448;-69
2023/10/05 09:22:53;;;;;;;0.80;0.50;;;;;;;17.04;71.77;101401.03;6126254;23;20406;-69
2023/10/05 09:25:27;;;;;;;0.90;0.70;;;;;;;17.19;71.13;101409.59;6126714;23;20384;-70
2023/10/05 09:28:07;;;;;;;0.90;0.50;;;;;;;17.13;71.32;101397.72;6126317;23;20667;-69
2023/10/05 09:30:49;;;;;;;0.80;0.50;;;;;;;17.52;69.78;101399.00;6126131;23;20415;-67
2023/10/05 09:33:19;;;;;;;0.80;0.40;;;;;;;17.45;69.59;101411.94;6126514;23;20374;-69
2023/10/05 09:35:48;;;;;;;0.80;0.50;;;;;;;17.46;69.79;101399.09;6126768;23;20845;-68
2023/10/05 09:38:21;;;;;;;0.80;0.40;;;;;;;17.66;68.83;101408.69;6126533;23;20702;-69
2023/10/05 09:40:53;;;;;;;0.90;0.50;;;;;;;17.51;69.31;101419.22;6126442;23;20410;-70
2023/10/05 09:43:28;;;;;;;0.80;0.50;;;;;;;17.26;70.99;101421.28;6126131;23;20490;-69
2023/10/05 09:45:58;;;;;;;0.83;0.43;;;;;;;17.06;71.40;101413.38;6126383;23;20378;-70
2023/10/05 09:48:31;;;;;;;0.90;0.50;;;;;;;17.08;71.38;101426.84;6130131;23;20444;-69
2023/10/05 09:51:00;;;;;;;0.90;0.73;;;;;;;17.09;71.84;101417.56;6126789;23;20433;-70
2023/10/05 09:53:33;;;;;;;0.80;0.50;;;;;;;17.32;71.85;101428.56;6126140;23;20375;-68
2023/10/05 09:56:03;;;;;;;0.90;0.50;;;;;;;17.03;71.12;101418.50;6126218;23;20448;-68
2023/10/05 09:58:34;;;;;;;0.90;0.60;;;;;;;16.92;72.26;101426.41;6126257;23;20858;-69
2023/10/05 10:01:10;;;;;;;0.80;0.40;;;;;;;16.71;73.10;101420.59;6125851;23;20413;-69
2023/10/05 10:03:45;;;;;;;0.80;0.50;;;;;;;16.41;74.06;101425.97;6125723;23;20380;-69
2023/10/05 10:06:18;;;;;;;0.80;0.40;;;;;;;16.30;75.19;101424.00;6125905;23;20377;-69
2023/10/05 10:08:53;;;;;;;0.80;0.50;;;;;;;16.46;75.09;101424.22;6126154;23;20922;-69
2023/10/05 10:11:27;;;;;;;0.80;0.40;;;;;;;16.50;75.27;101425.44;6125912;23;20441;-70
2023/10/05 10:14:01;;;;;;;0.80;0.50;;;;;;;16.56;76.69;101429.13;6126505;23;20350;-70
2023/10/05 10:16:34;;;;;;;1.00;0.70;;;;;;;16.56;78.05;101434.59;6127938;23;20369;-69
2023/10/05 10:19:08;;;;;;;0.90;0.50;;;;;;;16.56;79.14;101439.22;6127976;23;20368;-70
2023/10/05 10:21:41;;;;;;;0.80;0.50;;;;;;;16.70;79.59;101440.81;6127204;23;20453;-71
2023/10/05 10:24:14;;;;;;;0.80;0.40;;;;;;;16.44;80.03;101434.56;6127526;23;20401;-70
2023/10/05 10:26:45;;;;;;;1.10;0.83;;;;;;;16.35;82.24;101433.19;6127464;23;20390;-70
2023/10/05 10:29:17;;;;;;;1.00;0.70;;;;;;;16.39;82.98;101455.41;6127807;23;20382;-70
2023/10/05 10:31:48;;;;;;;0.80;0.40;;;;;;;16.04;83.30;101442.31;6126608;23;20507;-71
2023/10/05 10:34:42;;;;;;;0.80;0.60;;;;;;;15.84;85.50;101440.81;6126902;23;20349;-69
2023/10/05 10:37:32;;;;;;;0.90;0.50;;;;;;;15.63;86.19;101445.66;6128330;23;20386;-70
2023/10/05 10:40:12;;;;;;;0.80;0.50;;;;;;;15.61;87.12;101450.47;6126935;23;20367;-70
2023/10/05 10:42:53;;;;;;;1.07;0.97;;;;;;;15.74;87.16;101449.50;6130756;23;20424;-71
2023/10/05 10:45:28;;;;;;;0.80;0.40;;;;;;;15.81;85.72;101457.66;6135854;23;20349;-69
2023/10/05 10:47:57;;;;;;;0.80;0.40;;;;;;;15.76;86.14;101449.31;6126225;23;20982;-69
2023/10/05 10:50:29;;;;;;;0.80;0.50;;;;;;;15.68;86.84;101453.16;6125203;23;20426;-68
2023/10/05 10:52:59;;;;;;;0.80;0.43;;;;;;;15.79;86.05;101460.59;6125510;23;20381;-67
2023/10/05 10:55:32;;;;;;;0.90;0.50;;;;;;;15.85;85.81;101469.78;6125301;23;20421;-68
2023/10/05 10:58:12;;;;;;;0.80;0.50;;;;;;;15.97;83.79;101468.03;6099378;23;20402;-68
2023/10/05 11:00:57;;;;;;;0.87;0.50;;;;;;;15.93;84.21;101469.50;6125079;23;20466;-68
2023/10/05 11:03:26;;;;;;;0.97;0.60;;;;;;;16.05;82.19;101463.09;6126029;23;20362;-71
2023/10/05 11:05:55;;;;;;;0.80;0.50;;;;;;;15.96;82.47;101461.72;6125459;23;20402;-71
2023/10/05 11:08:24;;;;;;;0.80;0.50;;;;;;;16.03;82.96;101462.47;6125976;23;20357;-69
2023/10/05 11:11:06;;;;;;;1.03;0.93;;;;;;;16.14;83.34;101465.53;6124990;23;20464;-69
2023/10/05 11:13:43;;;;;;;1.13;1.03;;;;;;;16.30;81.11;101478.63;6124849;23;20375;-68
2023/10/05 11:16:15;;;;;;;0.90;0.70;;;;;;;16.49;80.52;101477.56;6125447;23;20763;-68
2023/10/05 11:18:57;;;;;;;0.90;0.60;;;;;;;16.70;79.58;101474.41;6125352;23;20362;-69
2023/10/05 11:21:27;;;;;;;0.90;0.60;;;;;;;17.19;77.87;101470.63;6125239;23;20400;-70
2023/10/05 11:24:06;;;;;;;0.80;0.53;;;;;;;17.27;76.86;101477.69;6125335;23;20387;-70
2023/10/05 11:27:05;;;;;;;0.80;0.40;;;;;;;17.36;75.26;101473.53;6126475;23;20387;-68
2023/10/05 11:29:46;;;;;;;0.90;0.50;;;;;;;17.28;76.00;101474.69;6124412;23;20402;-69
2023/10/05 11:32:20;;;;;;;0.90;0.50;;;;;;;17.42;75.67;101472.63;6124630;23;20447;-68
2023/10/05 11:35:13;;;;;;;2.50;2.10;;;;;;;17.49;74.44;101464.28;6131287;23;20458;-68
2023/10/05 11:37:58;;;;;;;0.80;0.40;;;;;;;17.22;76.08;101477.53;6128572;23;20368;-69
2023/10/05 11:40:31;;;;;;;0.80;0.40;;;;;;;16.90;78.83;101488.66;6129766;23;20414;-70
2023/10/05 11:43:06;;;;;;;1.33;1.23;;;;;;;16.95;80.04;101488.81;6126360;23;20357;-67
2023/10/05 11:45:37;;;;;;;0.80;0.40;;;;;;;16.54;83.30;101491.41;6126175;23;20353;-70
2023/10/05 11:48:12;;;;;;;0.80;0.50;;;;;;;16.19;87.45;101487.56;6125815;23;20375;-70
2023/10/05 11:50:51;;;;;;;0.90;0.50;;;;;;;15.78;91.71;101491.66;6127943;23;20408;-70